Latest Weather Observations for Tunnack

IDT60801

Issued at 2:01 am EST Friday 31 July 2015 (issued every 30 minutes, with the page automatically refreshed every 10 minutes)

About weather observations | Map of weather stations | Latest weather observations for TAS | Other Formats
Station Details ID: 094195 Name: TUNNACK FIRE STATION Lat: -42.45 Lon: 147.46 Height: 461.5 m
Data from the previous 72 hours. | See also: Recent months at Tunnack
Date/Time
EST
Temp
°C
App
Temp
°C
Dew
Point
Rel
Hum
%
Delta-T
°C
Wind Press
QNH
hPa
Press
MSL
hPa
Rain
since 9 am
mm
Dir
 
Spd
km/h
Gust
km/h
Spd
kts
Gust
kts
31/02:00am 1.2 -4.2 1.1 99 0.0 W 19 22 10 12 1008.8 1009.8 1.6
31/01:30am 1.4 -4.1 0.5 94 0.3 WSW 19 26 10 14 1008.4 1009.4 1.6
31/01:00am 2.9 -2.2 0.8 86 0.8 WSW 17 24 9 13 1007.7 1008.7 0.6
31/12:30am 2.8 -3.3 0.4 84 0.9 W 22 32 12 17 1006.7 1007.7 0.6
31/12:00am 3.2 -2.7 -0.6 76 1.4 WSW 20 33 11 18 1006.6 1007.6 0.6
 
Date/Time
EST
Temp
°C
App
Temp
°C
Dew
Point
Rel
Hum
%
Delta-T
°C
Wind Press
QNH
hPa
Press
MSL
hPa
Rain
since 9 am
mm
Dir
 
Spd
km/h
Gust
km/h
Spd
kts
Gust
kts
30/11:30pm 3.2 -3.9 -1.0 74 1.6 WSW 26 39 14 21 1005.6 1006.5 0.6
30/11:03pm 3.4 -3.9 -0.2 77 1.4 WSW 28 46 15 25 1005.2 1006.2 0.6
30/11:00pm 3.4 -3.5 -0.1 78 1.4 WSW 26 41 14 22 1005.2 1006.2 0.6
30/10:41pm 3.7 -3.5 0.4 79 1.3 WSW 28 46 15 25 1004.9 1005.9 0.6
30/10:30pm 4.1 -3.4 1.1 81 1.2 WSW 30 46 16 25 1004.7 1005.7 0.6
30/10:09pm 4.6 -2.4 2.0 83 1.1 WSW 28 48 15 26 1004.1 1005.0 0.6
30/10:00pm 4.6 -2.0 2.1 84 1.0 WSW 26 43 14 23 1003.8 1004.7 0.6
30/09:30pm 4.9 -0.9 2.3 83 1.1 W 22 35 12 19 1003.4 1004.3 0.6
30/09:00pm 5.5 -2.2 2.5 81 1.3 W 32 57 17 31 1002.1 1003.0 0.6
30/08:47pm 5.6 -3.0 2.8 82 1.2 WNW 37 59 20 32 1001.7 1002.6 0.6
30/08:30pm 5.4 -3.1 3.1 85 1.0 WNW 37 50 20 27 1001.4 1002.3 0.6
30/08:00pm 6.1 -2.6 4.3 88 0.8 WNW 39 54 21 29 1001.0 1001.8 0.6
30/07:52pm 6.1 -2.5 4.6 90 0.7 WNW 39 57 21 31 1001.1 1002.0 0.6
30/07:30pm 6.1 -1.9 5.5 96 0.3 NW 37 46 20 25 1001.2 1002.1 0.4
30/07:04pm 6.3 -2.4 4.3 87 0.9 NNW 39 57 21 31 999.2 1000.0 0.0
30/07:00pm 6.4 -2.7 4.2 86 1.0 NNW 41 57 22 31 999.1 999.9 0.0
30/06:30pm 6.4 -2.7 4.1 85 1.0 NNW 41 61 22 33 998.8 999.6 0.0
30/06:24pm 6.4 -2.3 4.2 86 1.0 NNW 39 57 21 31 999.0 999.8 0.0
30/06:00pm 6.4 -3.1 3.9 84 1.1 NNW 43 57 23 31 999.2 1000.0 0.0
30/05:40pm 6.2 -1.7 4.2 87 0.9 NNW 35 57 19 31 999.1 999.9 0.0
30/05:30pm 6.1 -1.2 4.4 89 0.8 NNW 32 48 17 26 999.4 1000.3 0.0
30/05:00pm 6.2 -0.8 4.0 86 1.0 NNW 30 48 16 26 1000.0 1000.9 0.0
30/04:40pm 6.7 0.0 3.9 82 1.2 NNW 28 46 15 25 1000.8 1001.7 0.0
30/04:30pm 6.6 -0.1 3.9 83 1.2 NNW 28 44 15 24 1001.0 1001.8 0.0
30/04:00pm 7.5 -0.9 3.6 76 1.7 NNW 37 56 20 30 1001.1 1002.0 0.0
30/03:30pm 8.1 0.7 3.8 74 1.9 NNW 32 50 17 27 1001.9 1002.8 0.0
30/03:00pm 8.8 1.1 3.6 70 2.3 NNW 33 56 18 30 1002.0 1002.9 0.0
30/02:30pm 9.5 2.2 4.3 70 2.4 NNW 32 54 17 29 1002.6 1003.5 0.0
30/02:09pm 9.0 1.0 3.8 70 2.3 NNW 35 54 19 29 1003.0 1004.0 0.0
30/02:00pm 8.7 0.3 3.7 71 2.2 NNW 37 52 20 28 1003.3 1004.2 0.0
30/01:30pm 8.5 1.5 3.9 73 2.1 NNW 30 48 16 26 1004.0 1004.9 0.0
30/01:00pm 8.0 -1.5 4.0 76 1.8 N 43 61 23 33 1005.0 1006.0 0.0
30/12:30pm 8.5 -1.8 2.9 68 2.4 NNW 46 69 25 37 1005.8 1006.7 0.0
30/12:00pm 8.3 -1.3 3.6 72 2.1 NNW 43 74 23 40 1007.1 1008.1 0.0
30/11:55am 8.6 0.1 3.2 69 2.4 NNW 37 74 20 40 1007.3 1008.3 0.0
30/11:52am 8.6 1.1 3.6 71 2.2 NNW 32 52 17 28 1007.5 1008.5 0.0
30/11:50am 8.7 1.6 3.7 71 2.2 NNW 30 46 16 25 1007.5 1008.5 0.0
30/11:30am 8.9 4.2 5.1 77 1.7 N 19 28 10 15 1008.2 1009.1 0.0
30/11:12am 8.2 1.6 4.4 77 1.7 N 28 46 15 25 1008.7 1009.7 0.0
30/11:00am 7.8 1.4 5.3 84 1.1 N 28 43 15 23 1009.3 1010.3 0.0
30/10:30am 7.2 -1.2 5.5 89 0.8 N 39 50 21 27 1010.2 1011.2 0.0
30/10:00am 6.8 -0.3 5.6 92 0.6 N 32 50 17 27 1010.8 1011.8 0.0
30/09:34am 6.5 -1.1 5.6 94 0.4 N 35 54 19 29 1011.1 1012.1 0.0
30/09:30am 6.4 -0.8 5.7 95 0.3 N 33 50 18 27 1011.3 1012.3 0.0
30/09:00am 6.3 0.4 5.6 95 0.3 N 26 37 14 20 1012.2 1013.3 0.0
30/08:30am 5.9 -1.5 5.2 95 0.3 N 33 50 18 27 1012.7 1013.7 0.0
30/08:18am 6.0 -1.7 5.3 95 0.3 N 35 54 19 29 1012.7 1013.7 0.0
30/08:00am 5.9 -0.4 5.6 98 0.1 N 28 39 15 21 1013.2 1014.2 0.0
30/07:30am 5.8 -1.5 5.4 97 0.2 N 33 43 18 23 1013.2 1014.2 0.0
30/07:00am 5.3 -1.1 5.2 99 0.0 NNW 28 39 15 21 1013.5 1014.5 0.0
30/06:30am 5.5 -1.2 5.4 99 0.0 NNW 30 39 16 21 1013.9 1015.0 0.0
30/06:00am 5.5 -0.5 5.4 99 0.0 N 26 37 14 20 1014.2 1015.3 0.0
30/05:30am 5.3 -0.3 5.2 99 0.0 N 24 35 13 19 1014.9 1015.9 0.0
30/05:00am 5.1 -0.6 5.0 99 0.0 N 24 32 13 17 1015.2 1016.2 0.0
30/04:30am 5.0 -1.5 4.9 99 0.0 N 28 33 15 18 1015.7 1016.8 0.0
30/04:00am 4.7 -1.1 4.4 98 0.1 N 24 32 13 17 1016.0 1017.1 0.0
30/03:30am 4.5 0.0 4.4 99 0.0 N 17 26 9 14 1016.5 1017.6 0.0
30/03:00am 4.8 -0.2 4.7 99 0.0 N 20 26 11 14 1016.8 1017.9 0.0
30/02:30am 5.0 0.2 4.7 98 0.1 N 19 28 10 15 1017.3 1018.3 0.0
30/02:00am 5.4 -0.6 5.3 99 0.0 N 26 35 14 19 1018.0 1019.1 0.0
30/01:30am 5.6 0.0 5.5 99 0.0 N 24 37 13 20 1018.4 1019.5 0.0
30/01:00am 5.8 -0.5 5.7 99 0.0 N 28 39 15 21 1018.6 1019.7 0.0
30/12:30am 5.9 -0.7 5.9 100 0.0 N 30 41 16 22 1018.8 1019.9 0.0
30/12:00am 6.0 -1.0 6.0 100 0.0 N 32 41 17 22 1019.3 1020.4 0.0
 
Date/Time
EST
Temp
°C
App
Temp
°C
Dew
Point
Rel
Hum
%
Delta-T
°C
Wind Press
QNH
hPa
Press
MSL
hPa
Rain
since 9 am
mm
Dir
 
Spd
km/h
Gust
km/h
Spd
kts
Gust
kts
29/11:30pm 5.9 -1.3 5.9 100 0.0 N 33 44 18 24 1019.6 1020.7 0.0
29/11:00pm 6.0 0.1 6.0 100 0.0 N 26 33 14 18 1019.9 1021.0 0.0
29/10:30pm 6.3 0.9 6.3 100 0.0 N 24 32 13 17 1020.6 1021.7 0.0
29/10:00pm 6.2 0.8 6.2 100 0.0 N 24 33 13 18 1020.9 1022.0 0.0
29/09:30pm 6.1 1.0 6.1 100 0.0 N 22 30 12 16 1021.1 1022.3 0.0
29/09:00pm 5.9 1.7 5.8 99 0.0 N 17 22 9 12 1021.4 1022.6 0.0
29/08:30pm 6.0 1.8 5.9 99 0.0 N 17 22 9 12 1021.7 1022.8 0.0
29/08:00pm 6.0 0.9 5.9 99 0.0 N 22 30 12 16 1021.4 1022.6 0.0
29/07:30pm 6.1 2.0 6.0 99 0.0 N 17 24 9 13 1021.8 1022.9 0.0
29/07:00pm 6.3 3.3 6.0 98 0.1 N 11 17 6 9 1021.8 1022.9 0.0
29/06:30pm 6.5 3.1 5.9 96 0.3 N 13 15 7 8 1021.8 1022.9 0.0
29/06:00pm 6.7 3.5 5.3 91 0.6 N 11 15 6 8 1021.6 1022.7 0.0
29/05:30pm 7.1 2.9 5.9 92 0.6 N 17 24 9 13 1021.9 1023.0 0.0
29/05:00pm 7.2 3.8 5.7 90 0.7 N 13 19 7 10 1021.9 1023.0 0.0
29/04:30pm 7.3 3.4 5.3 87 0.9 N 15 20 8 11 1022.2 1023.3 0.0
29/04:00pm 7.5 2.9 5.6 88 0.9 NNE 19 22 10 12 1022.4 1023.5 0.0
29/03:30pm 7.9 3.6 5.4 84 1.1 NNE 17 22 9 12 1022.6 1023.7 0.0
29/03:00pm 8.2 4.6 5.0 80 1.5 N 13 17 7 9 1022.7 1023.8 0.0
29/02:30pm 8.0 4.8 5.1 82 1.3 N 11 17 6 9 1022.9 1024.1 0.0
29/02:00pm 7.6 3.7 5.2 85 1.1 N 15 19 8 10 1023.5 1024.7 0.0
29/01:30pm 7.4 4.0 5.9 90 0.7 NNE 13 19 7 10 1023.9 1025.0 0.0
29/01:00pm 7.1 3.3 5.9 92 0.6 NNE 15 20 8 11 1024.4 1025.5 0.0
29/12:30pm 6.5 1.9 6.4 99 0.0 N 20 26 11 14 1024.9 1026.1 0.0
29/12:00pm 6.4 1.8 5.4 93 0.5 N 19 26 10 14 1025.5 1026.7 0.0
29/11:30am 6.5 2.4 6.4 99 0.0 N 17 20 9 11 1025.7 1026.9 0.0
29/11:00am 5.5 0.9 5.5 100 0.0 N 19 20 10 11 1026.3 1027.4 0.0
29/10:30am 5.0 1.0 5.0 100 0.0 N 15 20 8 11 1026.7 1027.9 0.0
29/10:00am 4.8 0.8 4.8 100 0.0 N 15 24 8 13 1026.9 1028.1 0.0
29/09:30am 4.8 1.2 4.8 100 0.0 N 13 17 7 9 1027.2 1028.4 0.0
29/09:00am 3.9 1.8 3.9 100 0.0 NNW 4 11 2 6 1027.3 1028.5 0.0
29/08:30am 3.8 1.1 3.8 100 0.0 NNE 7 13 4 7 1027.5 1028.7 0.0
29/08:00am 3.6 0.5 3.6 100 0.0 N 9 13 5 7 1027.4 1028.6 0.0
29/07:30am 2.8 -0.4 2.8 100 0.0 NNE 9 13 5 7 1027.2 1028.4 0.0
29/07:00am 1.1 -1.9 1.1 100 0.0 E 6 7 3 4 1027.0 1028.2 0.0
29/06:30am 0.5 -1.8 0.4 99 0.0 E 2 6 1 3 1027.1 1028.3 0.0
29/06:00am 1.4 -1.7 1.4 100 0.0 E 7 7 4 4 1027.0 1028.2 0.0
29/05:30am 1.8 -1.2 1.7 99 0.0 ESE 7 9 4 5 1026.7 1027.9 0.0
29/05:00am 2.3 -0.7 2.2 99 0.0 E 7 11 4 6 1026.6 1027.8 0.0
29/04:30am 0.6 -2.6 0.5 99 0.0 ENE 7 11 4 6 1026.6 1027.8 0.0
29/04:00am 2.6 0.6 2.5 99 0.0 WNW 2 6 1 3 1026.7 1027.9 0.0
29/03:30am 2.5 -0.4 2.4 99 0.0 NNW 7 9 4 5 1026.7 1027.9 0.0
29/03:00am 2.9 0.2 2.8 99 0.0 ENE 6 7 3 4 1026.8 1028.0 0.0
29/02:30am 2.7 0.0 2.6 99 0.0 ENE 6 7 3 4 1026.9 1028.1 0.0
29/02:00am 3.1 1.5 2.5 96 0.2 CALM 0 6 0 3 1027.1 1028.3 0.0
29/01:30am 5.2 2.3 4.5 95 0.3 NNW 9 13 5 7 1027.0 1028.2 0.0
29/01:00am 5.9 3.0 4.9 93 0.4 NW 9 13 5 7 1027.2 1028.4 0.0
29/12:30am 6.0 2.8 5.0 93 0.4 NW 11 15 6 8 1027.4 1028.6 0.0
29/12:00am 7.3 4.1 6.9 97 0.2 NW 13 19 7 10 1027.6 1028.8 0.0
 
Date/Time
EST
Temp
°C
App
Temp
°C
Dew
Point
Rel
Hum
%
Delta-T
°C
Wind Press
QNH
hPa
Press
MSL
hPa
Rain
since 9 am
mm
Dir
 
Spd
km/h
Gust
km/h
Spd
kts
Gust
kts
28/11:30pm 4.4 0.6 4.0 97 0.2 NW 13 17 7 9 1027.5 1028.7 0.0
28/11:00pm 5.3 1.6 4.6 95 0.3 WNW 13 15 7 8 1027.3 1028.5 0.0
28/10:30pm 5.8 2.1 4.4 91 0.6 WNW 13 17 7 9 1027.4 1028.6 0.0
28/10:00pm 6.8 3.3 5.3 90 0.7 W 13 19 7 10 1027.3 1028.5 0.0
28/09:30pm 7.0 4.2 5.0 87 0.9 WNW 9 15 5 8 1027.2 1028.4 0.0
28/09:00pm 7.6 3.7 5.4 86 1.0 WNW 15 20 8 11 1027.0 1028.2 0.0
28/08:30pm 7.7 4.3 5.8 88 0.9 NW 13 15 7 8 1027.1 1028.3 0.0
28/08:00pm 7.4 4.3 5.7 89 0.8 WNW 11 15 6 8 1026.7 1027.9 0.0
28/07:30pm 6.7 3.9 5.3 91 0.6 WNW 9 15 5 8 1026.7 1027.9 0.0
28/07:00pm 7.2 3.3 5.3 88 0.9 NW 15 17 8 9 1026.6 1027.8 0.0
28/06:30pm 7.7 4.5 5.3 85 1.1 W 11 19 6 10 1026.3 1027.4 0.0
28/06:00pm 8.3 5.2 5.4 82 1.3 WNW 11 17 6 9 1025.8 1027.0 0.0
28/05:30pm 9.1 5.2 5.5 78 1.7 WNW 15 22 8 12 1025.7 1026.9 0.0
28/05:00pm 9.5 6.0 5.5 76 1.9 WNW 13 20 7 11 1025.4 1026.6 0.0
28/04:30pm 10.0 6.6 5.8 75 2.0 W 13 20 7 11 1025.2 1026.4 0.0
28/04:00pm 10.4 5.8 5.6 72 2.3 W 19 32 10 17 1025.0 1026.2 0.0
28/03:30pm 10.9 6.2 6.1 72 2.3 W 20 32 11 17 1024.8 1026.0 0.0
28/03:00pm 10.7 5.9 5.7 71 2.4 W 20 32 11 17 1024.6 1025.8 0.0
28/02:30pm 11.1 5.9 5.6 69 2.6 W 22 35 12 19 1024.4 1025.5 0.0
28/02:00pm 11.6 6.8 5.7 67 2.8 W 20 32 11 17 1024.4 1025.5 0.0
28/01:30pm 12.0 7.9 6.1 67 2.8 W 17 24 9 13 1024.5 1025.6 0.0
28/01:00pm 10.6 5.8 5.6 71 2.3 W 20 39 11 21 1024.7 1025.9 0.0
28/12:30pm 10.1 4.1 5.5 73 2.2 WNW 26 41 14 22 1024.9 1026.1 0.0
28/12:24pm 10.3 4.0 5.5 72 2.3 WNW 28 46 15 25 1025.0 1026.2 0.0
28/12:00pm 10.2 6.3 5.4 72 2.2 W 15 30 8 16 1025.1 1026.3 0.0
28/11:30am 9.7 5.0 5.3 74 2.0 WNW 19 30 10 16 1025.3 1026.5 0.0
28/11:00am 8.6 5.5 5.5 81 1.4 WNW 11 19 6 10 1025.7 1026.9 0.0
28/10:30am 8.2 4.7 5.3 82 1.3 WNW 13 22 7 12 1025.7 1026.9 0.0
28/10:00am 7.7 2.8 5.2 84 1.1 W 20 32 11 17 1025.3 1026.5 0.0
28/09:30am 6.3 0.5 4.6 89 0.8 W 24 35 13 19 1024.8 1026.0 0.0
28/09:00am 6.1 -0.4 4.6 90 0.7 W 28 39 15 21 1024.2 1025.3 -
28/08:30am 5.7 -0.1 4.5 92 0.5 W 24 33 13 18 1024.5 1025.6 -
28/08:00am 5.0 -0.1 4.0 93 0.4 W 20 32 11 17 1024.1 1025.2 -
28/07:30am 5.1 1.2 3.6 90 0.6 WNW 13 20 7 11 1024.0 1025.1 -
28/07:00am 5.8 1.9 3.6 86 0.9 WNW 13 19 7 10 1023.9 1025.0 -
28/06:30am 6.0 3.3 3.7 85 1.0 NNW 7 17 4 9 1023.2 1024.4 -
28/06:00am 5.7 3.1 4.2 90 0.7 ENE 7 13 4 7 1022.9 1024.1 -
28/05:30am 5.2 1.7 3.7 90 0.6 WNW 11 19 6 10 1022.5 1023.6 -
28/05:00am 5.2 1.3 3.5 89 0.7 NW 13 19 7 10 1022.1 1023.2 -
28/04:30am 5.1 1.9 3.3 88 0.8 NNW 9 15 5 8 1021.8 1022.9 -
28/04:00am 4.9 0.6 3.2 89 0.7 NW 15 22 8 12 1021.6 1022.7 -
28/03:30am 5.2 0.6 3.7 90 0.6 NW 17 24 9 13 1021.4 1022.6 -
28/03:00am 4.3 1.9 4.2 99 0.0 NNW 6 9 3 5 1021.6 1022.7 0.0
28/02:30am 3.6 0.9 3.5 99 0.0 ENE 7 13 4 7 1021.6 1022.7 -

Other Formats:

Comma delimited format used in spreadsheet applications
http://www.bom.gov.au/fwo/IDT60801/IDT60801.94960.axf

JavaScript Object Notation format (JSON) in row-major order
http://www.bom.gov.au/fwo/IDT60801/IDT60801.94960.json